Time;durP1;ratioP1;P1;durP2;ratioP2;P2;SDS_P1;SDS_P2;PMS_P1;PMS_P2;Temp;Humidity;BMP_temperature;BMP_pressure;BME280_temperature;BME280_humidity;BME280_pressure;Samples;Min_cycle;Max_cycle;Signal;HPM_P1;HPM_P2
2021/09/26 00:01:05;;;;;;;7.57;6.88;;;20.10;80.40;;;;;;5078888;28;20040;-70
2021/09/26 00:03:30;;;;;;;8.55;7.22;;;20.10;80.40;;;;;;5078634;28;20324;-70
2021/09/26 00:05:56;;;;;;;9.13;7.60;;;20.00;80.30;;;;;;5095980;28;20132;-70
2021/09/26 00:08:22;;;;;;;8.13;7.10;;;20.10;80.40;;;;;;5096386;28;20062;-70
2021/09/26 00:10:47;;;;;;;8.20;6.93;;;20.10;80.40;;;;;;5096045;28;20153;-70
2021/09/26 00:13:13;;;;;;;7.68;6.97;;;20.10;80.40;;;;;;5095978;28;20040;-71
2021/09/26 00:15:39;;;;;;;7.05;6.35;;;20.10;80.30;;;;;;5096046;28;20036;-70
2021/09/26 00:18:05;;;;;;;7.75;7.05;;;20.00;80.20;;;;;;5095984;28;20094;-70
2021/09/26 00:20:31;;;;;;;7.78;7.03;;;20.00;80.20;;;;;;5096276;28;20105;-70
2021/09/26 00:22:57;;;;;;;8.00;7.20;;;20.00;80.20;;;;;;5095867;28;20044;-70
2021/09/26 00:25:22;;;;;;;7.63;6.55;;;20.00;80.30;;;;;;5095555;28;20031;-70
2021/09/26 00:27:48;;;;;;;7.60;6.90;;;20.10;80.30;;;;;;5094862;28;20042;-70
2021/09/26 00:30:15;;;;;;;7.88;7.07;;;20.00;80.30;;;;;;5096621;28;20115;-70
2021/09/26 00:32:42;;;;;;;7.05;6.32;;;20.00;80.30;;;;;;5095920;28;20071;-71
2021/09/26 00:35:09;;;;;;;7.15;6.43;;;20.00;80.20;;;;;;5096282;28;20093;-70
2021/09/26 00:37:35;;;;;;;8.18;7.38;;;20.10;80.30;;;;;;5095333;28;20043;-70
2021/09/26 00:40:01;;;;;;;8.60;7.05;;;20.10;80.20;;;;;;5095966;28;20063;-70
2021/09/26 00:42:26;;;;;;;7.25;6.55;;;20.00;80.20;;;;;;5095739;28;20120;-70
2021/09/26 00:44:52;;;;;;;7.80;7.00;;;20.00;80.20;;;;;;5095707;28;20435;-71
2021/09/26 00:47:18;;;;;;;7.07;6.38;;;20.00;80.20;;;;;;5095902;28;20044;-70
2021/09/26 00:49:43;;;;;;;6.95;6.25;;;20.00;80.20;;;;;;5095218;28;20149;-70
2021/09/26 00:52:09;;;;;;;6.53;5.88;;;20.00;80.10;;;;;;5095337;28;20135;-70
2021/09/26 00:54:39;;;;;;;7.22;6.53;;;20.00;80.10;;;;;;5096155;28;20052;-70
2021/09/26 00:57:06;;;;;;;6.53;5.97;;;20.00;80.20;;;;;;5095513;28;20040;-70
2021/09/26 00:59:31;;;;;;;7.95;6.38;;;20.00;80.20;;;;;;5095715;28;20031;-70
2021/09/26 01:01:57;;;;;;;8.43;6.95;;;20.00;80.20;;;;;;5095420;28;20455;-70
2021/09/26 01:04:23;;;;;;;7.65;6.82;;;20.00;80.20;;;;;;5095712;28;20048;-70
2021/09/26 01:07:13;;;;;;;7.28;6.45;;;20.00;80.10;;;;;;5077362;28;20044;-70
2021/09/26 01:10:09;;;;;;;7.50;6.70;;;20.00;80.10;;;;;;5095397;28;20039;-70
2021/09/26 01:12:57;;;;;;;9.05;6.72;;;20.00;80.10;;;;;;5095023;28;20182;-70
2021/09/26 01:15:47;;;;;;;7.22;6.53;;;20.00;80.00;;;;;;5095588;28;20058;-70
2021/09/26 01:18:45;;;;;;;7.65;6.78;;;20.00;80.00;;;;;;5095230;28;20032;-70
2021/09/26 01:21:20;;;;;;;7.18;6.43;;;20.00;80.00;;;;;;5076214;28;20382;-70
2021/09/26 01:24:04;;;;;;;8.90;6.80;;;20.00;80.10;;;;;;5095275;28;20055;-70
2021/09/26 01:27:03;;;;;;;7.90;6.55;;;20.00;80.00;;;;;;5095190;28;20032;-70
2021/09/26 01:29:48;;;;;;;7.78;6.00;;;20.00;80.00;;;;;;5095623;28;20048;-70
2021/09/26 01:32:16;;;;;;;7.10;6.40;;;20.00;80.00;;;;;;5044264;28;20109;-70
2021/09/26 01:34:48;;;;;;;6.32;5.72;;;20.00;80.10;;;;;;5095285;28;20359;-70
2021/09/26 01:37:41;;;;;;;6.97;6.25;;;20.00;80.00;;;;;;5094956;28;20090;-70
2021/09/26 01:40:14;;;;;;;7.30;6.60;;;20.00;80.00;;;;;;5097576;28;20051;-70
2021/09/26 01:42:46;;;;;;;6.80;6.20;;;20.00;80.10;;;;;;5099620;28;20090;-70
2021/09/26 01:45:39;;;;;;;7.25;5.95;;;20.00;80.00;;;;;;5099026;28;20052;-70
2021/09/26 01:48:15;;;;;;;6.55;5.88;;;20.00;80.00;;;;;;5098393;28;20632;-70
2021/09/26 01:50:42;;;;;;;6.93;6.25;;;20.00;80.10;;;;;;5098883;28;20044;-70
2021/09/26 01:53:10;;;;;;;7.82;6.35;;;20.00;80.10;;;;;;5098764;28;20415;-70
2021/09/26 01:55:36;;;;;;;6.80;6.15;;;20.00;80.00;;;;;;5099445;28;20075;-69
2021/09/26 01:58:03;;;;;;;7.63;6.60;;;20.00;80.00;;;;;;5098847;28;20502;-71
2021/09/26 02:00:29;;;;;;;6.72;6.13;;;20.00;80.00;;;;;;5080831;28;20424;-70
2021/09/26 02:02:56;;;;;;;6.93;6.22;;;20.00;80.00;;;;;;5098811;28;20076;-70
2021/09/26 02:05:22;;;;;;;7.57;6.72;;;19.90;79.90;;;;;;5098457;28;20040;-70
2021/09/26 02:07:51;;;;;;;6.82;6.15;;;19.90;80.00;;;;;;5098612;28;20105;-70
2021/09/26 02:10:23;;;;;;;7.32;6.63;;;19.90;80.10;;;;;;5098876;28;20035;-70
2021/09/26 02:12:49;;;;;;;7.47;6.68;;;20.00;80.10;;;;;;5098651;28;20035;-70
2021/09/26 02:15:18;;;;;;;7.72;6.50;;;19.90;80.00;;;;;;5098683;28;20075;-70
2021/09/26 02:17:46;;;;;;;7.35;6.55;;;19.90;80.00;;;;;;5098154;28;20043;-70
2021/09/26 02:20:15;;;;;;;7.15;6.45;;;20.00;80.00;;;;;;5098617;28;20344;-70
2021/09/26 02:22:42;;;;;;;6.85;6.15;;;19.90;80.00;;;;;;5098259;28;20420;-70
2021/09/26 02:25:09;;;;;;;7.55;6.80;;;19.90;79.90;;;;;;5098448;28;20036;-70
2021/09/26 02:27:36;;;;;;;7.03;6.32;;;19.90;79.90;;;;;;5098589;28;20044;-70
2021/09/26 02:30:03;;;;;;;7.15;6.43;;;19.90;79.90;;;;;;5097961;28;20043;-70
2021/09/26 02:32:29;;;;;;;8.30;6.13;;;19.90;79.90;;;;;;5098102;28;20039;-70
2021/09/26 02:34:55;;;;;;;6.65;5.95;;;19.90;79.80;;;;;;5097999;28;20051;-70
2021/09/26 02:37:21;;;;;;;6.55;5.88;;;19.90;79.80;;;;;;5098266;28;20035;-70
2021/09/26 02:39:48;;;;;;;6.65;5.95;;;19.90;79.80;;;;;;5097878;28;20089;-70
2021/09/26 02:42:42;;;;;;;6.50;5.78;;;19.90;79.80;;;;;;5098600;28;20047;-70
2021/09/26 02:45:15;;;;;;;7.45;6.55;;;19.90;79.80;;;;;;5098154;28;20093;-69
2021/09/26 02:47:51;;;;;;;6.30;5.30;;;19.90;79.90;;;;;;5097892;28;20050;-70
2021/09/26 02:50:18;;;;;;;6.88;6.18;;;19.90;79.90;;;;;;5096900;28;20047;-70
2021/09/26 02:52:45;;;;;;;7.13;6.43;;;19.90;80.00;;;;;;5097046;28;20474;-70
2021/09/26 02:55:12;;;;;;;6.57;5.97;;;19.90;80.00;;;;;;5097356;28;20040;-70
2021/09/26 02:57:38;;;;;;;6.30;5.70;;;19.90;79.90;;;;;;5097588;28;20051;-70
2021/09/26 03:00:06;;;;;;;6.78;6.05;;;19.90;79.90;;;;;;5098262;28;20036;-70
2021/09/26 03:02:37;;;;;;;7.55;6.38;;;19.90;79.90;;;;;;5079675;28;20054;-70
2021/09/26 03:05:05;;;;;;;6.35;5.47;;;19.90;79.90;;;;;;5097248;28;20084;-70
2021/09/26 03:07:31;;;;;;;6.95;6.25;;;19.90;79.90;;;;;;5097899;28;20044;-70
2021/09/26 03:09:57;;;;;;;6.60;6.00;;;19.90;79.90;;;;;;5097793;28;20098;-70
2021/09/26 03:12:23;;;;;;;6.72;6.03;;;19.90;79.80;;;;;;5098019;28;20040;-70
2021/09/26 03:14:50;;;;;;;7.60;6.80;;;19.90;79.90;;;;;;5097477;28;20355;-70
2021/09/26 03:17:16;;;;;;;6.85;6.15;;;19.90;79.80;;;;;;5097793;28;20079;-69
2021/09/26 03:19:43;;;;;;;7.45;6.25;;;19.90;79.80;;;;;;5097341;28;20040;-70
2021/09/26 03:22:09;;;;;;;6.88;6.18;;;19.90;79.80;;;;;;5097507;28;20044;-70
2021/09/26 03:24:35;;;;;;;7.78;6.30;;;19.90;79.80;;;;;;5097094;28;20040;-70
2021/09/26 03:27:02;;;;;;;7.78;6.95;;;19.90;79.80;;;;;;5063062;28;20047;-70
2021/09/26 03:29:29;;;;;;;7.00;6.30;;;19.90;79.80;;;;;;5097024;28;20043;-70
2021/09/26 03:31:54;;;;;;;7.50;6.70;;;19.90;79.80;;;;;;5097184;28;20379;-69
2021/09/26 03:34:20;;;;;;;7.35;6.57;;;19.90;79.80;;;;;;5096784;28;20043;-70
2021/09/26 03:36:46;;;;;;;7.57;6.70;;;19.90;79.80;;;;;;5096680;28;20090;-70
2021/09/26 03:39:12;;;;;;;9.60;7.32;;;19.90;79.80;;;;;;5096766;28;20051;-70
2021/09/26 03:41:37;;;;;;;8.23;6.78;;;19.90;79.80;;;;;;5078872;28;20048;-70
2021/09/26 03:44:03;;;;;;;7.63;6.82;;;19.90;79.90;;;;;;5096822;28;20442;-70
2021/09/26 03:46:29;;;;;;;7.05;5.80;;;19.90;79.90;;;;;;5096683;28;20119;-70
2021/09/26 03:48:54;;;;;;;6.75;6.05;;;19.80;79.80;;;;;;5096186;28;20359;-70
2021/09/26 03:51:20;;;;;;;6.97;6.13;;;19.80;79.80;;;;;;5096667;28;20055;-69
2021/09/26 03:53:46;;;;;;;7.18;6.30;;;19.80;79.80;;;;;;5096225;28;20040;-70
2021/09/26 03:56:12;;;;;;;7.05;6.35;;;19.90;79.90;;;;;;5096253;28;20121;-70
2021/09/26 03:58:37;;;;;;;6.78;6.13;;;19.80;79.90;;;;;;5096606;28;20414;-70
2021/09/26 04:01:03;;;;;;;7.28;6.55;;;19.90;79.90;;;;;;5096654;28;20044;-70
2021/09/26 04:03:29;;;;;;;7.18;6.47;;;19.80;79.90;;;;;;5096260;28;20047;-70
2021/09/26 04:05:54;;;;;;;7.72;6.88;;;19.80;79.90;;;;;;5095920;28;20126;-70
2021/09/26 04:08:20;;;;;;;9.60;7.20;;;19.80;79.90;;;;;;5096630;28;20044;-70
2021/09/26 04:10:46;;;;;;;7.45;6.75;;;19.80;79.90;;;;;;5096801;28;20036;-70
2021/09/26 04:13:12;;;;;;;8.77;7.28;;;19.80;79.90;;;;;;5095433;28;20133;-70
2021/09/26 04:15:38;;;;;;;7.55;6.85;;;19.80;79.80;;;;;;5094393;28;20106;-69
2021/09/26 04:18:03;;;;;;;8.02;6.85;;;19.80;79.80;;;;;;5096062;28;20043;-70
2021/09/26 04:20:29;;;;;;;9.18;7.60;;;19.80;79.80;;;;;;5096037;28;20040;-70
2021/09/26 04:22:55;;;;;;;8.30;7.50;;;19.80;79.80;;;;;;5095921;28;20044;-69
2021/09/26 04:25:21;;;;;;;8.15;7.25;;;19.80;79.80;;;;;;5096587;28;20204;-69
2021/09/26 04:27:47;;;;;;;8.15;7.35;;;19.80;79.80;;;;;;5078208;28;20051;-70
2021/09/26 04:30:13;;;;;;;8.90;7.75;;;19.80;79.80;;;;;;5095933;28;20063;-71
2021/09/26 04:32:41;;;;;;;9.35;8.00;;;19.80;79.90;;;;;;5078115;28;20078;-70
2021/09/26 04:35:07;;;;;;;8.75;7.85;;;19.80;80.50;;;;;;5096061;28;20040;-69
2021/09/26 04:37:33;;;;;;;7.85;7.05;;;19.80;79.90;;;;;;5095418;28;20055;-70
2021/09/26 04:39:58;;;;;;;8.65;7.45;;;19.80;79.80;;;;;;5095741;28;20050;-70
2021/09/26 04:42:24;;;;;;;9.73;7.90;;;19.80;79.80;;;;;;5095911;28;20337;-70
2021/09/26 04:44:50;;;;;;;9.00;8.10;;;19.80;79.80;;;;;;5095581;28;20086;-70
2021/09/26 04:47:15;;;;;;;9.40;7.95;;;19.80;79.80;;;;;;5095395;28;20059;-70
2021/09/26 04:49:41;;;;;;;8.63;7.45;;;19.80;79.80;;;;;;5095595;28;20055;-70
2021/09/26 04:52:07;;;;;;;9.23;7.82;;;19.70;79.80;;;;;;5095985;28;20076;-70
2021/09/26 04:54:33;;;;;;;8.88;7.20;;;19.80;79.70;;;;;;5095434;28;20043;-69
2021/09/26 04:56:59;;;;;;;11.93;7.43;;;19.80;79.70;;;;;;5095503;28;20043;-70
2021/09/26 04:59:24;;;;;;;18.58;8.75;;;19.80;79.70;;;;;;5095536;28;20406;-68
2021/09/26 05:01:51;;;;;;;20.05;10.27;;;19.80;79.70;;;;;;5095396;28;20469;-70
2021/09/26 05:04:17;;;;;;;28.30;13.20;;;19.80;79.50;;;;;;5077508;28;20051;-75
2021/09/26 05:06:43;;;;;;;21.77;14.40;;;19.80;79.50;;;;;;5095193;28;20044;-80
2021/09/26 05:09:09;;;;;;;29.13;20.55;;;19.80;79.40;;;;;;5095389;28;20047;-79
2021/09/26 05:11:34;;;;;;;33.50;22.25;;;19.80;79.30;;;;;;5095480;28;20431;-74
2021/09/26 05:14:00;;;;;;;27.23;21.50;;;19.80;79.40;;;;;;5097648;28;20193;-73
2021/09/26 05:16:26;;;;;;;34.40;24.10;;;19.80;79.40;;;;;;5101946;28;20040;-70
2021/09/26 05:18:52;;;;;;;31.73;23.67;;;19.70;79.50;;;;;;5101827;28;20157;-70
2021/09/26 05:21:18;;;;;;;26.00;20.90;;;19.70;79.50;;;;;;5102203;28;20429;-70
2021/09/26 05:23:44;;;;;;;27.75;22.15;;;19.70;79.30;;;;;;5101725;28;20044;-71
2021/09/26 05:26:10;;;;;;;30.67;21.33;;;19.70;79.30;;;;;;5102120;28;20051;-72
2021/09/26 05:28:35;;;;;;;27.80;20.70;;;19.70;79.30;;;;;;5084255;28;20044;-70
2021/09/26 05:31:02;;;;;;;26.52;22.90;;;19.70;79.40;;;;;;5101966;28;20047;-75
2021/09/26 05:33:29;;;;;;;30.35;22.67;;;19.70;79.40;;;;;;5101973;28;20044;-75
2021/09/26 05:35:57;;;;;;;32.85;22.48;;;19.70;79.40;;;;;;5102584;28;20035;-76
2021/09/26 05:38:24;;;;;;;31.23;23.33;;;19.70;80.00;;;;;;5102070;28;20047;-72
2021/09/26 05:40:50;;;;;;;30.38;23.45;;;19.60;79.30;;;;;;5102174;28;20059;-80
2021/09/26 05:43:16;;;;;;;30.00;24.13;;;19.60;79.30;;;;;;5101798;28;20079;-78
2021/09/26 05:45:41;;;;;;;28.70;23.48;;;19.70;79.30;;;;;;5083928;28;20067;-78
2021/09/26 05:48:07;;;;;;;28.98;24.67;;;19.60;79.30;;;;;;5101272;28;20086;-82
2021/09/26 05:50:33;;;;;;;31.98;24.98;;;19.60;79.20;;;;;;5066683;28;20043;-76
2021/09/26 05:53:00;;;;;;;29.90;23.77;;;19.60;79.20;;;;;;5101473;28;20420;-79
2021/09/26 05:55:27;;;;;;;29.60;24.15;;;19.60;79.20;;;;;;5101829;28;20035;-77
2021/09/26 05:57:55;;;;;;;32.65;24.17;;;19.60;79.20;;;;;;5083574;28;20043;-80
2021/09/26 06:00:24;;;;;;;30.20;23.98;;;19.60;79.20;;;;;;5083444;28;20043;-80
2021/09/26 06:02:51;;;;;;;30.58;23.17;;;19.60;79.20;;;;;;5083298;28;20455;-80
2021/09/26 06:05:17;;;;;;;28.95;22.70;;;19.60;79.20;;;;;;5083541;28;20040;-79
2021/09/26 06:07:42;;;;;;;24.77;21.85;;;19.60;79.10;;;;;;5083442;28;20465;-80
2021/09/26 06:10:09;;;;;;;25.90;22.27;;;19.60;79.20;;;;;;5101683;28;20032;-79
2021/09/26 06:12:34;;;;;;;27.40;22.02;;;19.60;79.10;;;;;;5067086;28;20096;-79
2021/09/26 06:15:03;;;;;;;27.83;22.90;;;19.70;79.00;;;;;;5083566;28;20036;-80
2021/09/26 06:17:30;;;;;;;25.50;21.80;;;19.70;79.10;;;;;;5083146;28;20067;-80
2021/09/26 06:19:56;;;;;;;26.77;22.52;;;19.70;79.10;;;;;;5083582;28;20339;-80
2021/09/26 06:22:24;;;;;;;26.50;22.30;;;19.70;78.90;;;;;;5083542;28;20043;-79
2021/09/26 06:24:50;;;;;;;26.10;21.52;;;19.70;79.40;;;;;;5100722;28;20067;-79
2021/09/26 06:27:16;;;;;;;27.35;21.25;;;19.70;78.70;;;;;;5079992;28;20039;-80
2021/09/26 06:29:46;;;;;;;29.77;22.13;;;19.70;78.60;;;;;;5097694;28;20040;-79
2021/09/26 06:32:11;;;;;;;27.83;22.08;;;19.70;78.40;;;;;;5079959;28;20036;-79
2021/09/26 06:34:37;;;;;;;27.75;22.92;;;19.70;78.00;;;;;;5079783;28;20108;-78
2021/09/26 06:37:05;;;;;;;28.70;23.63;;;19.70;77.60;;;;;;5097769;28;20128;-79
2021/09/26 06:39:32;;;;;;;27.45;22.33;;;19.60;77.50;;;;;;5098196;28;20328;-78
2021/09/26 06:41:58;;;;;;;27.45;22.05;;;19.60;77.50;;;;;;5097759;28;20055;-79
2021/09/26 06:44:24;;;;;;;27.88;21.15;;;19.50;77.70;;;;;;5097703;28;20044;-79
2021/09/26 06:46:50;;;;;;;24.75;20.08;;;19.40;78.00;;;;;;5079606;28;20127;-79
2021/09/26 06:49:16;;;;;;;24.55;21.05;;;19.40;78.10;;;;;;5097316;28;20134;-79
2021/09/26 06:51:43;;;;;;;27.10;21.85;;;19.40;78.20;;;;;;5079592;28;20489;-80
2021/09/26 06:54:09;;;;;;;26.52;21.17;;;19.40;78.00;;;;;;5079703;28;20366;-81
2021/09/26 06:56:35;;;;;;;26.52;20.80;;;19.40;77.90;;;;;;5097450;28;20044;-79
2021/09/26 06:59:01;;;;;;;26.20;20.88;;;19.40;78.10;;;;;;5097016;28;20028;-79
2021/09/26 07:01:26;;;;;;;24.30;20.15;;;19.40;78.10;;;;;;5097225;28;20423;-79
2021/09/26 07:03:52;;;;;;;25.60;20.88;;;19.40;78.10;;;;;;5097345;28;20032;-79
2021/09/26 07:06:18;;;;;;;24.98;21.05;;;19.40;78.20;;;;;;5097227;28;20051;-79
2021/09/26 07:08:43;;;;;;;26.08;19.92;;;19.40;78.10;;;;;;5097439;28;20336;-78
2021/09/26 07:11:09;;;;;;;27.27;21.05;;;19.50;78.10;;;;;;5097503;28;20036;-78
2021/09/26 07:13:35;;;;;;;27.27;19.40;;;19.50;78.10;;;;;;5079347;28;20063;-78
2021/09/26 07:16:01;;;;;;;24.17;19.67;;;19.50;78.10;;;;;;5079508;28;20047;-79
2021/09/26 07:18:27;;;;;;;27.48;19.92;;;19.50;78.00;;;;;;5097115;28;20071;-76
2021/09/26 07:20:53;;;;;;;24.67;19.13;;;19.50;77.90;;;;;;5097146;28;20079;-78
2021/09/26 07:23:18;;;;;;;24.27;19.13;;;19.50;77.70;;;;;;5079057;28;20036;-78
2021/09/26 07:25:44;;;;;;;22.65;18.77;;;19.50;77.70;;;;;;5096124;28;20036;-79
2021/09/26 07:28:10;;;;;;;23.60;18.73;;;19.50;77.60;;;;;;5078707;28;20043;-78
2021/09/26 07:30:36;;;;;;;24.23;18.80;;;19.50;77.60;;;;;;5078784;28;20039;-78
2021/09/26 07:33:01;;;;;;;23.70;18.92;;;19.50;77.50;;;;;;5097092;28;20044;-77
2021/09/26 07:35:27;;;;;;;23.92;18.73;;;19.50;77.20;;;;;;5096689;28;20042;-78
2021/09/26 07:37:53;;;;;;;23.20;18.98;;;19.50;77.30;;;;;;5096305;28;20101;-74
2021/09/26 07:40:19;;;;;;;25.15;19.67;;;19.50;77.30;;;;;;5095549;28;20039;-77
2021/09/26 07:42:44;;;;;;;21.05;18.77;;;19.50;77.10;;;;;;5096297;28;20455;-75
2021/09/26 07:45:12;;;;;;;22.15;18.98;;;19.50;77.10;;;;;;5096470;28;20036;-76
2021/09/26 07:47:39;;;;;;;24.67;19.67;;;19.50;77.10;;;;;;5096567;28;20059;-70
2021/09/26 07:50:05;;;;;;;27.95;19.15;;;19.50;77.60;;;;;;5096828;28;20083;-70
2021/09/26 07:52:31;;;;;;;22.02;18.48;;;19.50;77.20;;;;;;5096603;28;20040;-70
2021/09/26 07:54:57;;;;;;;22.17;18.15;;;19.50;77.30;;;;;;5095624;28;20046;-70
2021/09/26 07:57:24;;;;;;;22.45;16.92;;;19.50;77.30;;;;;;5096900;28;20044;-71
2021/09/26 07:59:51;;;;;;;23.92;16.38;;;19.60;77.30;;;;;;5096831;28;20363;-73
2021/09/26 08:02:16;;;;;;;21.52;17.55;;;19.60;77.10;;;;;;5095923;28;20439;-74
2021/09/26 08:04:42;;;;;;;21.63;17.25;;;19.60;76.90;;;;;;5095494;28;20032;-75
2021/09/26 08:07:08;;;;;;;21.15;18.17;;;19.60;76.60;;;;;;5095616;28;20040;-75
2021/09/26 08:09:35;;;;;;;21.35;16.98;;;19.60;76.40;;;;;;5096118;28;20040;-75
2021/09/26 08:12:02;;;;;;;19.20;17.10;;;19.50;76.20;;;;;;5095901;28;20055;-74
2021/09/26 08:14:28;;;;;;;18.98;16.73;;;19.60;76.00;;;;;;5090445;28;20040;-74
2021/09/26 08:16:53;;;;;;;21.15;17.92;;;19.50;75.80;;;;;;5058660;28;20046;-74
2021/09/26 08:19:21;;;;;;;20.85;17.40;;;19.50;75.80;;;;;;5075581;28;20041;-75
2021/09/26 08:21:48;;;;;;;20.05;16.92;;;19.50;75.60;;;;;;5075850;28;20451;-75
2021/09/26 08:24:14;;;;;;;20.30;16.98;;;19.50;75.50;;;;;;5075929;28;20341;-75
2021/09/26 08:26:39;;;;;;;21.58;17.10;;;19.50;75.50;;;;;;5095686;28;20036;-74
2021/09/26 08:29:05;;;;;;;21.23;16.83;;;19.50;75.40;;;;;;5095422;28;20135;-74
2021/09/26 08:31:31;;;;;;;19.58;17.13;;;19.50;75.50;;;;;;5095598;28;20043;-74
2021/09/26 08:33:56;;;;;;;21.70;16.50;;;19.60;75.70;;;;;;5095907;28;20039;-75
2021/09/26 08:36:22;;;;;;;23.88;17.45;;;19.60;75.90;;;;;;5095704;28;20040;-75
2021/09/26 08:38:48;;;;;;;20.45;16.20;;;19.60;75.90;;;;;;5090089;28;20088;-68
2021/09/26 08:41:16;;;;;;;18.77;15.80;;;19.60;75.90;;;;;;5094228;28;20067;-68
2021/09/26 08:43:42;;;;;;;21.05;16.40;;;19.60;75.90;;;;;;5095897;28;20055;-69
2021/09/26 08:46:08;;;;;;;18.67;15.82;;;19.60;76.00;;;;;;5095311;28;20036;-69
2021/09/26 08:48:34;;;;;;;21.00;15.60;;;19.60;76.10;;;;;;5094396;28;20116;-70
2021/09/26 08:51:00;;;;;;;19.35;15.30;;;19.60;76.10;;;;;;5095577;28;20144;-69
2021/09/26 08:53:26;;;;;;;21.20;16.75;;;19.60;76.10;;;;;;5095645;28;20082;-70
2021/09/26 08:55:53;;;;;;;18.58;15.95;;;19.60;76.20;;;;;;5095444;28;20101;-69
2021/09/26 08:58:20;;;;;;;16.75;14.90;;;19.60;76.30;;;;;;5095807;28;20043;-69
2021/09/26 09:00:46;;;;;;;37.08;16.45;;;19.70;76.30;;;;;;5095586;28;20044;-69
2021/09/26 09:03:13;;;;;;;22.40;15.43;;;19.60;76.10;;;;;;5095772;28;20071;-69
2021/09/26 09:05:40;;;;;;;20.65;15.27;;;19.70;76.20;;;;;;5094543;28;20028;-69
2021/09/26 09:08:14;;;;;;;20.42;15.13;;;19.70;76.10;;;;;;5094583;28;20040;-69
2021/09/26 09:10:57;;;;;;;18.52;15.30;;;19.70;76.10;;;;;;5084661;28;20105;-69
2021/09/26 09:13:35;;;;;;;16.83;15.03;;;19.60;76.00;;;;;;5095492;28;20141;-69
2021/09/26 09:16:09;;;;;;;20.17;16.13;;;19.60;76.10;;;;;;5095476;28;20083;-69
2021/09/26 09:18:40;;;;;;;17.15;15.35;;;19.60;76.00;;;;;;5095219;28;20044;-69
2021/09/26 09:21:22;;;;;;;18.17;14.32;;;19.60;76.00;;;;;;5095046;28;20040;-69
2021/09/26 09:24:09;;;;;;;20.45;15.10;;;19.60;76.10;;;;;;5095466;28;20050;-74
2021/09/26 09:26:39;;;;;;;20.92;14.90;;;19.60;76.30;;;;;;5094219;28;20040;-75
2021/09/26 09:29:06;;;;;;;20.00;15.77;;;19.60;76.30;;;;;;5095049;28;20339;-74
2021/09/26 09:31:32;;;;;;;20.15;14.95;;;19.60;76.20;;;;;;5094886;28;20044;-74
2021/09/26 09:33:58;;;;;;;18.40;15.65;;;19.60;76.20;;;;;;5094911;28;20148;-74
2021/09/26 09:36:29;;;;;;;19.60;15.65;;;19.60;76.10;;;;;;5095270;28;20095;-74
2021/09/26 09:39:06;;;;;;;19.00;15.07;;;19.60;76.10;;;;;;5095260;28;20051;-73
2021/09/26 09:41:33;;;;;;;24.20;17.05;;;19.60;76.10;;;;;;5095216;28;20039;-69
2021/09/26 09:43:59;;;;;;;18.75;15.02;;;19.60;75.90;;;;;;5095324;28;20036;-69
2021/09/26 09:46:38;;;;;;;19.83;15.75;;;19.60;75.90;;;;;;5094755;28;20047;-69
2021/09/26 09:49:12;;;;;;;19.63;16.17;;;19.60;75.90;;;;;;5094651;28;20044;-69
2021/09/26 09:51:39;;;;;;;18.08;14.90;;;19.60;75.90;;;;;;5077126;28;20058;-69
2021/09/26 09:54:07;;;;;;;17.77;15.18;;;19.60;76.00;;;;;;5094668;28;20040;-69
2021/09/26 09:56:42;;;;;;;17.40;15.23;;;19.50;76.00;;;;;;5094677;28;20561;-70
2021/09/26 09:59:08;;;;;;;20.38;15.30;;;19.50;76.00;;;;;;5077630;28;20102;-69
2021/09/26 10:01:36;;;;;;;16.75;13.48;;;19.50;76.00;;;;;;5098380;28;20378;-70
2021/09/26 10:04:04;;;;;;;17.48;14.60;;;19.50;76.20;;;;;;5098300;28;20054;-69
2021/09/26 10:06:35;;;;;;;20.13;14.43;;;19.50;76.20;;;;;;5097475;28;20505;-69
2021/09/26 10:09:18;;;;;;;17.40;13.98;;;19.50;76.30;;;;;;5098078;28;20076;-71
2021/09/26 10:11:47;;;;;;;17.63;12.45;;;19.60;76.80;;;;;;5098346;28;20054;-71
2021/09/26 10:14:32;;;;;;;17.80;13.05;;;19.60;76.70;;;;;;5097787;28;20083;-70
2021/09/26 10:17:10;;;;;;;14.55;12.43;;;19.60;76.90;;;;;;5098243;28;20051;-70
2021/09/26 10:19:37;;;;;;;13.82;11.10;;;19.60;76.60;;;;;;5097827;28;20086;-70
2021/09/26 10:22:04;;;;;;;14.38;12.13;;;19.60;76.70;;;;;;5080112;28;20455;-70
2021/09/26 10:24:34;;;;;;;16.45;11.52;;;19.70;76.80;;;;;;5097647;28;20032;-70
2021/09/26 10:27:07;;;;;;;14.63;10.98;;;19.70;76.80;;;;;;5097683;28;20497;-71
2021/09/26 10:29:34;;;;;;;15.85;11.23;;;19.70;76.80;;;;;;5097420;28;20076;-70
2021/09/26 10:32:03;;;;;;;16.55;10.38;;;19.80;77.00;;;;;;5097783;28;20072;-70
2021/09/26 10:34:30;;;;;;;16.00;10.95;;;19.80;77.10;;;;;;5097455;28;20075;-70
2021/09/26 10:36:57;;;;;;;16.02;10.18;;;19.80;77.30;;;;;;5097716;28;20450;-70
2021/09/26 10:39:26;;;;;;;14.52;8.65;;;19.80;77.30;;;;;;5097616;28;20043;-70
2021/09/26 10:42:13;;;;;;;17.83;9.15;;;19.90;77.50;;;;;;5095355;28;20044;-70
2021/09/26 10:44:52;;;;;;;15.43;9.32;;;19.90;77.40;;;;;;5097626;28;20352;-71
2021/09/26 10:47:21;;;;;;;14.75;8.63;;;19.90;77.80;;;;;;5096230;28;20115;-70
2021/09/26 10:49:55;;;;;;;15.48;8.48;;;19.90;78.00;;;;;;5095556;28;20363;-70
2021/09/26 10:52:37;;;;;;;14.13;8.57;;;19.90;78.30;;;;;;5098316;28;20134;-78
2021/09/26 10:55:18;;;;;;;16.17;10.38;;;19.90;78.10;;;;;;5097699;28;20389;-78
2021/09/26 10:57:53;;;;;;;19.27;12.45;;;19.90;77.90;;;;;;5097027;28;20454;-74
2021/09/26 11:00:37;;;;;;;14.75;11.30;;;20.00;77.80;;;;;;5080453;28;20044;-77
2021/09/26 11:03:15;;;;;;;17.02;11.27;;;19.90;77.70;;;;;;5097566;28;20032;-77
2021/09/26 11:05:54;;;;;;;21.20;13.05;;;20.00;77.80;;;;;;5097473;28;20431;-77
2021/09/26 11:08:27;;;;;;;20.00;13.27;;;20.00;77.70;;;;;;5096956;28;20572;-77
2021/09/26 11:10:58;;;;;;;19.30;13.98;;;20.00;77.60;;;;;;5079609;28;20384;-76
2021/09/26 11:13:36;;;;;;;19.00;15.32;;;20.00;77.50;;;;;;5078637;28;20055;-76
2021/09/26 11:16:04;;;;;;;18.48;14.35;;;20.00;77.30;;;;;;5096797;28;20063;-76
2021/09/26 11:18:45;;;;;;;18.40;14.73;;;20.00;77.30;;;;;;5096502;28;20036;-76
2021/09/26 11:21:36;;;;;;;21.08;15.50;;;20.00;77.20;;;;;;5097574;28;20054;-76
2021/09/26 11:24:06;;;;;;;29.83;17.23;;;20.00;77.20;;;;;;5096592;28;20340;-77
2021/09/26 11:26:58;;;;;;;21.73;16.77;;;20.00;77.00;;;;;;5075336;28;20454;-76
2021/09/26 11:29:30;;;;;;;22.60;16.50;;;20.00;76.90;;;;;;5062892;28;20048;-75
2021/09/26 11:31:57;;;;;;;22.13;16.15;;;20.00;76.80;;;;;;5096446;28;20040;-77
2021/09/26 11:34:43;;;;;;;20.55;16.85;;;19.90;76.70;;;;;;5096527;28;20124;-75
2021/09/26 11:37:12;;;;;;;22.15;16.88;;;20.00;76.70;;;;;;5013515;28;20088;-75
2021/09/26 11:39:40;;;;;;;18.88;15.73;;;19.90;76.50;;;;;;5014375;28;20073;-75
2021/09/26 11:42:35;;;;;;;20.08;16.70;;;19.90;76.60;;;;;;4998236;28;20064;-76
2021/09/26 11:45:08;;;;;;;23.02;18.17;;;20.00;76.50;;;;;;5014676;28;20050;-76
2021/09/26 11:47:34;;;;;;;20.83;17.52;;;19.90;76.50;;;;;;5012910;28;20046;-75
2021/09/26 11:50:12;;;;;;;23.33;17.58;;;19.90;76.60;;;;;;5014253;28;20046;-76
2021/09/26 11:52:40;;;;;;;19.10;17.02;;;19.90;76.90;;;;;;4997656;28;20124;-77
2021/09/26 11:55:07;;;;;;;25.17;17.08;;;19.90;77.00;;;;;;5013484;28;20081;-76
2021/09/26 11:57:33;;;;;;;25.10;17.67;;;19.90;77.30;;;;;;5014330;28;20137;-77
2021/09/26 11:59:59;;;;;;;22.10;18.02;;;19.80;77.20;;;;;;5013726;28;20497;-76
2021/09/26 12:02:24;;;;;;;19.60;15.98;;;19.80;77.40;;;;;;5013829;28;20081;-71
2021/09/26 12:04:50;;;;;;;20.02;16.95;;;19.90;77.40;;;;;;5013865;28;20124;-69
2021/09/26 12:07:16;;;;;;;18.17;15.60;;;19.90;77.40;;;;;;5023311;28;20062;-70
2021/09/26 12:09:45;;;;;;;23.25;15.70;;;19.90;77.50;;;;;;5075598;28;20044;-69
2021/09/26 12:12:11;;;;;;;22.05;15.23;;;19.90;77.50;;;;;;5090480;28;20040;-69
2021/09/26 12:14:40;;;;;;;23.10;14.77;;;19.90;77.50;;;;;;5095978;28;20040;-70
2021/09/26 12:17:09;;;;;;;16.55;13.75;;;19.90;77.60;;;;;;5095476;28;20505;-69
2021/09/26 12:19:35;;;;;;;18.58;14.00;;;19.90;77.60;;;;;;5095786;28;20111;-73
2021/09/26 12:22:13;;;;;;;16.55;13.68;;;20.00;77.50;;;;;;5095317;28;20036;-70
2021/09/26 12:24:54;;;;;;;20.55;12.63;;;20.00;77.50;;;;;;5095746;28;20036;-70
2021/09/26 12:27:45;;;;;;;16.73;11.90;;;20.00;78.00;;;;;;5095310;28;20048;-68
2021/09/26 12:30:16;;;;;;;21.10;12.00;;;20.00;77.60;;;;;;5095625;28;20123;-69
2021/09/26 12:33:06;;;;;;;18.83;11.77;;;20.00;77.50;;;;;;5096485;28;20047;-72
2021/09/26 12:35:54;;;;;;;20.30;13.02;;;20.00;77.40;;;;;;5095391;28;20067;-72
2021/09/26 12:38:25;;;;;;;20.17;12.02;;;20.00;77.30;;;;;;5095821;28;20511;-70
2021/09/26 12:41:04;;;;;;;17.92;12.52;;;20.00;77.30;;;;;;5095574;28;20044;-70
2021/09/26 12:43:37;;;;;;;14.05;11.20;;;20.00;77.30;;;;;;5078031;28;20135;-69
2021/09/26 12:46:08;;;;;;;18.88;12.27;;;20.00;77.30;;;;;;5095180;28;20043;-72